This is the latest recevied weather packets stored in our database for station/object N0YWB. If no packets are shown the sender has not sent any weather packets the latest 10 day(s).
| Time | Temp. | Humidity | Pressure | Rain* | Wind** | Luminosity | Snow |
|---|---|---|---|---|---|---|---|
| 1778080526 | 10.56° C | 53% | 1019.8 hPa | 0 mm | - | - | - |
| 1778078716 | 10° C | 55% | 1019.5 hPa | 0 mm | - | - | - |
| 1778072126 | 5.56° C | 73% | 1019 hPa | 0 mm | - | - | - |
| 1778063727 | 2.78° C | 83% | 1017 hPa | 0 mm | - | - | - |
| 1778062533 | 2.78° C | 86% | 1016.9 hPa | 0 mm | - | - | - |
| 1778057718 | 1.11° C | 91% | 1016.3 hPa | 0 mm | - | - | - |
| 1778054731 | 1.11° C | 92% | 1016.4 hPa | 0 mm | - | - | - |
| 1778051721 | 2.22° C | 86% | 1016.1 hPa | 0 mm | - | - | - |
| 1778046325 | 5° C | 72% | 1015.3 hPa | 0 mm | - | - | - |
| 1778045130 | 5.56° C | 72% | 1015 hPa | 0 mm | - | - | - |
| 1778043360 | 6.67° C | 65% | 1014.9 hPa | 0 mm | - | - | - |
| 1778039140 | 9.44° C | 57% | 1014.3 hPa | 0 mm | - | - | - |
| 1778035517 | 10.56° C | 54% | 1013.9 hPa | 0 mm | - | - | - |
| 1778034920 | 10.56° C | 54% | 1013.8 hPa | 0 mm | - | - | - |
| 1778030720 | 12.22° C | 49% | 1012.4 hPa | 0 mm | - | - | - |
| 1778026520 | 14.44° C | 42% | 1011.8 hPa | 0 mm | - | - | - |
| 1778025325 | 15° C | 43% | 1011.7 hPa | 0 mm | - | - | - |
| 1778024728 | 15° C | 41% | 1011.7 hPa | 0 mm | - | - | - |
| 1778024130 | 15° C | 42% | 1011.6 hPa | 0 mm | - | - | - |
| 1778021723 | 15.56° C | 42% | 1011.4 hPa | 0 mm | - | - | - |
| 1778020568 | 15.56° C | 44% | 1011.4 hPa | 0 mm | - | - | - |
| 1778015116 | 15° C | 48% | 1012.1 hPa | 0 mm | - | - | - |
| 1778012766 | 15° C | 50% | 1012.6 hPa | 0 mm | - | - | - |
| 1778005521 | 13.89° C | 50% | 1013.8 hPa | 0 mm | - | - | - |
| 1778004918 | 14.44° C | 51% | 1013.9 hPa | 0 mm | - | - | - |
* Rain latest hour (hover to see other rain measurements)
** Current wind speed in m/s (hover to see current wind gust speed)